sensor_id;sensor_type;location;lat;lon;timestamp;temperature;humidity
8862;DHT22;4799;50.996;4.754;2022-12-07T00:02:05;5.20;99.90
8862;DHT22;4799;50.996;4.754;2022-12-07T00:04:31;5.20;99.90
8862;DHT22;4799;50.996;4.754;2022-12-07T00:06:56;5.10;99.90
8862;DHT22;4799;50.996;4.754;2022-12-07T00:09:22;5.00;99.90
8862;DHT22;4799;50.996;4.754;2022-12-07T00:11:51;5.10;99.90
8862;DHT22;4799;50.996;4.754;2022-12-07T00:14:17;5.00;99.90
8862;DHT22;4799;50.996;4.754;2022-12-07T00:16:44;5.00;99.90
8862;DHT22;4799;50.996;4.754;2022-12-07T00:19:11;5.00;99.90
8862;DHT22;4799;50.996;4.754;2022-12-07T00:21:38;5.00;99.90
8862;DHT22;4799;50.996;4.754;2022-12-07T00:24:05;4.90;99.90
8862;DHT22;4799;50.996;4.754;2022-12-07T00:26:33;4.80;99.90
8862;DHT22;4799;50.996;4.754;2022-12-07T00:29:02;4.70;99.90
8862;DHT22;4799;50.996;4.754;2022-12-07T00:31:32;4.70;99.90
8862;DHT22;4799;50.996;4.754;2022-12-07T00:33:59;4.70;99.90
8862;DHT22;4799;50.996;4.754;2022-12-07T00:36:25;4.80;99.90
8862;DHT22;4799;50.996;4.754;2022-12-07T00:38:51;4.80;99.90
8862;DHT22;4799;50.996;4.754;2022-12-07T00:41:20;4.90;99.90
8862;DHT22;4799;50.996;4.754;2022-12-07T00:43:47;4.90;99.90
8862;DHT22;4799;50.996;4.754;2022-12-07T00:46:14;5.00;99.90
8862;DHT22;4799;50.996;4.754;2022-12-07T00:48:40;5.00;99.90
8862;DHT22;4799;50.996;4.754;2022-12-07T00:51:06;5.00;99.90
8862;DHT22;4799;50.996;4.754;2022-12-07T00:53:36;5.10;99.90
8862;DHT22;4799;50.996;4.754;2022-12-07T00:56:07;5.10;99.90
8862;DHT22;4799;50.996;4.754;2022-12-07T00:58:33;5.10;99.90
8862;DHT22;4799;50.996;4.754;2022-12-07T01:01:04;5.10;99.90
8862;DHT22;4799;50.996;4.754;2022-12-07T01:03:30;5.10;99.90
8862;DHT22;4799;50.996;4.754;2022-12-07T01:05:57;5.10;99.90
8862;DHT22;4799;50.996;4.754;2022-12-07T01:08:23;5.10;99.90
8862;DHT22;4799;50.996;4.754;2022-12-07T01:10:57;5.10;99.90
8862;DHT22;4799;50.996;4.754;2022-12-07T01:13:23;5.10;99.90
8862;DHT22;4799;50.996;4.754;2022-12-07T01:15:48;5.10;99.90
8862;DHT22;4799;50.996;4.754;2022-12-07T01:18:14;5.10;99.90
8862;DHT22;4799;50.996;4.754;2022-12-07T01:20:40;5.10;99.90
8862;DHT22;4799;50.996;4.754;2022-12-07T01:23:06;5.10;99.90
8862;DHT22;4799;50.996;4.754;2022-12-07T01:25:32;5.10;99.90
8862;DHT22;4799;50.996;4.754;2022-12-07T01:27:57;5.10;99.90
8862;DHT22;4799;50.996;4.754;2022-12-07T01:30:23;5.10;99.90
8862;DHT22;4799;50.996;4.754;2022-12-07T01:32:49;5.10;99.90
8862;DHT22;4799;50.996;4.754;2022-12-07T01:35:15;5.10;99.90
8862;DHT22;4799;50.996;4.754;2022-12-07T01:37:40;5.10;99.90
8862;DHT22;4799;50.996;4.754;2022-12-07T01:40:07;5.10;99.90
8862;DHT22;4799;50.996;4.754;2022-12-07T01:42:33;5.10;99.90
8862;DHT22;4799;50.996;4.754;2022-12-07T01:47:47;5.10;99.90
8862;DHT22;4799;50.996;4.754;2022-12-07T01:50:13;5.10;99.90
8862;DHT22;4799;50.996;4.754;2022-12-07T01:52:40;5.10;99.90
8862;DHT22;4799;50.996;4.754;2022-12-07T01:55:10;5.10;99.90
8862;DHT22;4799;50.996;4.754;2022-12-07T01:57:42;5.10;99.90
8862;DHT22;4799;50.996;4.754;2022-12-07T02:00:12;5.10;99.90
8862;DHT22;4799;50.996;4.754;2022-12-07T02:02:54;5.00;99.90
8862;DHT22;4799;50.996;4.754;2022-12-07T02:05:22;4.90;99.90
8862;DHT22;4799;50.996;4.754;2022-12-07T02:07:50;4.80;99.90
8862;DHT22;4799;50.996;4.754;2022-12-07T02:10:25;4.80;99.90
8862;DHT22;4799;50.996;4.754;2022-12-07T02:13:01;4.70;99.90
8862;DHT22;4799;50.996;4.754;2022-12-07T02:31:28;4.70;99.90
8862;DHT22;4799;50.996;4.754;2022-12-07T02:34:04;4.70;99.90
8862;DHT22;4799;50.996;4.754;2022-12-07T02:36:37;4.70;99.90
8862;DHT22;4799;50.996;4.754;2022-12-07T02:39:11;4.70;99.90
8862;DHT22;4799;50.996;4.754;2022-12-07T02:41:47;4.70;99.90
8862;DHT22;4799;50.996;4.754;2022-12-07T02:44:16;4.70;99.90
8862;DHT22;4799;50.996;4.754;2022-12-07T02:46:51;4.70;99.90
8862;DHT22;4799;50.996;4.754;2022-12-07T02:49:19;4.70;99.90
8862;DHT22;4799;50.996;4.754;2022-12-07T02:51:47;4.70;99.90
8862;DHT22;4799;50.996;4.754;2022-12-07T02:54:17;4.60;99.90
8862;DHT22;4799;50.996;4.754;2022-12-07T03:15:35;4.60;99.90
8862;DHT22;4799;50.996;4.754;2022-12-07T03:18:05;4.60;99.90
8862;DHT22;4799;50.996;4.754;2022-12-07T03:20:35;4.60;99.90
8862;DHT22;4799;50.996;4.754;2022-12-07T03:23:06;4.60;99.90
8862;DHT22;4799;50.996;4.754;2022-12-07T03:25:40;4.60;99.90
8862;DHT22;4799;50.996;4.754;2022-12-07T03:28:07;4.60;99.90
8862;DHT22;4799;50.996;4.754;2022-12-07T03:30:57;4.70;99.90
8862;DHT22;4799;50.996;4.754;2022-12-07T03:33:36;4.70;99.90
8862;DHT22;4799;50.996;4.754;2022-12-07T03:41:31;4.80;99.90
8862;DHT22;4799;50.996;4.754;2022-12-07T03:43:59;4.80;99.90
8862;DHT22;4799;50.996;4.754;2022-12-07T03:49:27;4.70;99.90
8862;DHT22;4799;50.996;4.754;2022-12-07T03:52:24;4.60;99.90
8862;DHT22;4799;50.996;4.754;2022-12-07T03:54:59;4.50;99.90
8862;DHT22;4799;50.996;4.754;2022-12-07T03:57:28;4.30;99.90
8862;DHT22;4799;50.996;4.754;2022-12-07T03:59:56;4.20;99.90
8862;DHT22;4799;50.996;4.754;2022-12-07T04:02:26;4.10;99.90
8862;DHT22;4799;50.996;4.754;2022-12-07T04:04:52;4.00;99.90
8862;DHT22;4799;50.996;4.754;2022-12-07T04:07:19;3.90;99.90
8862;DHT22;4799;50.996;4.754;2022-12-07T04:09:45;3.80;99.90
8862;DHT22;4799;50.996;4.754;2022-12-07T04:12:11;3.70;99.90
8862;DHT22;4799;50.996;4.754;2022-12-07T04:14:37;3.70;99.90
8862;DHT22;4799;50.996;4.754;2022-12-07T04:17:03;3.60;99.90
8862;DHT22;4799;50.996;4.754;2022-12-07T04:19:31;3.50;99.90
8862;DHT22;4799;50.996;4.754;2022-12-07T04:22:00;3.50;99.90
8862;DHT22;4799;50.996;4.754;2022-12-07T04:24:26;3.50;99.90
8862;DHT22;4799;50.996;4.754;2022-12-07T04:26:52;3.40;99.90
8862;DHT22;4799;50.996;4.754;2022-12-07T04:29:18;3.40;99.90
8862;DHT22;4799;50.996;4.754;2022-12-07T04:31:44;3.40;99.90
8862;DHT22;4799;50.996;4.754;2022-12-07T04:34:10;3.50;99.90
8862;DHT22;4799;50.996;4.754;2022-12-07T04:36:38;3.50;99.90
8862;DHT22;4799;50.996;4.754;2022-12-07T04:39:05;3.60;99.90
8862;DHT22;4799;50.996;4.754;2022-12-07T04:41:31;3.60;99.90
8862;DHT22;4799;50.996;4.754;2022-12-07T04:43:59;3.60;99.90
8862;DHT22;4799;50.996;4.754;2022-12-07T04:46:27;3.60;99.90
8862;DHT22;4799;50.996;4.754;2022-12-07T04:48:54;3.50;99.90
8862;DHT22;4799;50.996;4.754;2022-12-07T04:51:23;3.50;99.90
8862;DHT22;4799;50.996;4.754;2022-12-07T04:53:50;3.40;99.90
8862;DHT22;4799;50.996;4.754;2022-12-07T04:56:16;3.30;99.90
8862;DHT22;4799;50.996;4.754;2022-12-07T04:58:44;3.30;99.90
8862;DHT22;4799;50.996;4.754;2022-12-07T05:01:11;3.30;99.90
8862;DHT22;4799;50.996;4.754;2022-12-07T05:03:37;3.30;99.90
8862;DHT22;4799;50.996;4.754;2022-12-07T05:06:03;3.40;99.90
8862;DHT22;4799;50.996;4.754;2022-12-07T05:08:29;3.50;99.90
8862;DHT22;4799;50.996;4.754;2022-12-07T05:10:55;3.60;99.90
8862;DHT22;4799;50.996;4.754;2022-12-07T05:13:21;3.70;99.90
8862;DHT22;4799;50.996;4.754;2022-12-07T05:15:48;3.80;99.90
8862;DHT22;4799;50.996;4.754;2022-12-07T05:18:14;3.90;99.90
8862;DHT22;4799;50.996;4.754;2022-12-07T05:20:41;3.90;99.90
8862;DHT22;4799;50.996;4.754;2022-12-07T05:23:07;3.90;99.90
8862;DHT22;4799;50.996;4.754;2022-12-07T05:25:33;3.90;99.90
8862;DHT22;4799;50.996;4.754;2022-12-07T05:27:59;4.00;99.90
8862;DHT22;4799;50.996;4.754;2022-12-07T05:30:25;4.00;99.90
8862;DHT22;4799;50.996;4.754;2022-12-07T05:32:51;4.00;99.90
8862;DHT22;4799;50.996;4.754;2022-12-07T05:35:17;4.00;99.90
8862;DHT22;4799;50.996;4.754;2022-12-07T05:37:43;4.00;99.90
8862;DHT22;4799;50.996;4.754;2022-12-07T05:40:10;4.00;99.90
8862;DHT22;4799;50.996;4.754;2022-12-07T05:42:36;4.00;99.90
8862;DHT22;4799;50.996;4.754;2022-12-07T05:45:02;3.90;99.90
8862;DHT22;4799;50.996;4.754;2022-12-07T05:47:27;3.90;99.90
8862;DHT22;4799;50.996;4.754;2022-12-07T05:49:53;3.90;99.90
8862;DHT22;4799;50.996;4.754;2022-12-07T05:52:19;3.80;99.90
8862;DHT22;4799;50.996;4.754;2022-12-07T05:54:45;3.80;99.90
8862;DHT22;4799;50.996;4.754;2022-12-07T05:57:10;3.80;99.90
8862;DHT22;4799;50.996;4.754;2022-12-07T05:59:36;3.70;99.90
8862;DHT22;4799;50.996;4.754;2022-12-07T06:02:07;3.70;99.90
8862;DHT22;4799;50.996;4.754;2022-12-07T06:04:36;3.70;99.90
8862;DHT22;4799;50.996;4.754;2022-12-07T06:07:03;3.70;99.90
8862;DHT22;4799;50.996;4.754;2022-12-07T06:09:29;3.80;99.90
8862;DHT22;4799;50.996;4.754;2022-12-07T06:11:55;3.80;99.90
8862;DHT22;4799;50.996;4.754;2022-12-07T06:14:39;3.90;99.90
8862;DHT22;4799;50.996;4.754;2022-12-07T06:17:06;3.90;99.90
8862;DHT22;4799;50.996;4.754;2022-12-07T06:19:32;3.90;99.90
8862;DHT22;4799;50.996;4.754;2022-12-07T06:21:58;3.90;99.90
8862;DHT22;4799;50.996;4.754;2022-12-07T06:24:24;3.90;99.90
8862;DHT22;4799;50.996;4.754;2022-12-07T06:26:50;3.90;99.90
8862;DHT22;4799;50.996;4.754;2022-12-07T06:29:17;3.90;99.90
8862;DHT22;4799;50.996;4.754;2022-12-07T06:31:43;3.90;99.90
8862;DHT22;4799;50.996;4.754;2022-12-07T06:34:14;3.90;99.90
8862;DHT22;4799;50.996;4.754;2022-12-07T06:36:40;3.90;99.90
8862;DHT22;4799;50.996;4.754;2022-12-07T06:39:07;3.90;99.90
8862;DHT22;4799;50.996;4.754;2022-12-07T06:41:38;3.90;99.90
8862;DHT22;4799;50.996;4.754;2022-12-07T06:44:05;3.90;99.90
8862;DHT22;4799;50.996;4.754;2022-12-07T06:46:31;3.90;99.90
8862;DHT22;4799;50.996;4.754;2022-12-07T06:48:56;3.90;99.90
8862;DHT22;4799;50.996;4.754;2022-12-07T06:51:22;3.90;99.90
8862;DHT22;4799;50.996;4.754;2022-12-07T06:53:48;3.90;99.90
8862;DHT22;4799;50.996;4.754;2022-12-07T06:56:14;3.90;99.90
8862;DHT22;4799;50.996;4.754;2022-12-07T06:58:40;3.90;99.90
8862;DHT22;4799;50.996;4.754;2022-12-07T07:01:10;3.90;99.90
8862;DHT22;4799;50.996;4.754;2022-12-07T07:03:37;4.00;99.90
8862;DHT22;4799;50.996;4.754;2022-12-07T07:06:03;4.00;99.90
8862;DHT22;4799;50.996;4.754;2022-12-07T07:08:28;4.00;99.90
8862;DHT22;4799;50.996;4.754;2022-12-07T07:10:54;4.00;99.90
8862;DHT22;4799;50.996;4.754;2022-12-07T07:13:20;3.90;99.90
8862;DHT22;4799;50.996;4.754;2022-12-07T07:15:46;4.00;99.90
8862;DHT22;4799;50.996;4.754;2022-12-07T07:18:11;4.00;99.90
8862;DHT22;4799;50.996;4.754;2022-12-07T07:20:37;3.90;99.90
8862;DHT22;4799;50.996;4.754;2022-12-07T07:23:04;3.90;99.90
8862;DHT22;4799;50.996;4.754;2022-12-07T07:25:30;3.80;99.90
8862;DHT22;4799;50.996;4.754;2022-12-07T07:27:55;3.70;99.90
8862;DHT22;4799;50.996;4.754;2022-12-07T07:30:22;3.60;99.90
8862;DHT22;4799;50.996;4.754;2022-12-07T07:32:49;3.50;99.90
8862;DHT22;4799;50.996;4.754;2022-12-07T07:35:14;3.40;99.90
8862;DHT22;4799;50.996;4.754;2022-12-07T07:37:40;3.30;99.90
8862;DHT22;4799;50.996;4.754;2022-12-07T07:40:08;3.20;99.90
8862;DHT22;4799;50.996;4.754;2022-12-07T07:42:33;3.10;99.90
8862;DHT22;4799;50.996;4.754;2022-12-07T07:44:59;3.10;99.90
8862;DHT22;4799;50.996;4.754;2022-12-07T07:47:25;3.00;99.90
8862;DHT22;4799;50.996;4.754;2022-12-07T07:49:51;3.00;99.90
8862;DHT22;4799;50.996;4.754;2022-12-07T07:52:16;2.90;99.90
8862;DHT22;4799;50.996;4.754;2022-12-07T07:54:42;2.90;99.90
8862;DHT22;4799;50.996;4.754;2022-12-07T07:57:08;2.90;99.90
8862;DHT22;4799;50.996;4.754;2022-12-07T07:59:33;2.90;99.90
8862;DHT22;4799;50.996;4.754;2022-12-07T08:01:59;2.90;99.90
8862;DHT22;4799;50.996;4.754;2022-12-07T08:04:25;3.00;99.90
8862;DHT22;4799;50.996;4.754;2022-12-07T08:06:51;3.10;99.90
8862;DHT22;4799;50.996;4.754;2022-12-07T08:09:17;3.20;99.90
8862;DHT22;4799;50.996;4.754;2022-12-07T08:11:42;3.30;99.90
8862;DHT22;4799;50.996;4.754;2022-12-07T08:14:10;3.40;99.90
8862;DHT22;4799;50.996;4.754;2022-12-07T08:16:36;3.60;99.90
8862;DHT22;4799;50.996;4.754;2022-12-07T08:19:04;3.70;99.90
8862;DHT22;4799;50.996;4.754;2022-12-07T08:21:30;3.90;99.90
8862;DHT22;4799;50.996;4.754;2022-12-07T08:23:57;4.00;99.90
8862;DHT22;4799;50.996;4.754;2022-12-07T08:26:23;4.10;99.90
8862;DHT22;4799;50.996;4.754;2022-12-07T08:28:49;4.10;99.90
8862;DHT22;4799;50.996;4.754;2022-12-07T08:31:17;4.10;99.90
8862;DHT22;4799;50.996;4.754;2022-12-07T08:33:45;4.10;99.90
8862;DHT22;4799;50.996;4.754;2022-12-07T08:36:12;4.00;99.90
8862;DHT22;4799;50.996;4.754;2022-12-07T08:38:40;4.00;99.90
8862;DHT22;4799;50.996;4.754;2022-12-07T08:41:07;4.00;99.90
8862;DHT22;4799;50.996;4.754;2022-12-07T08:43:33;4.00;99.90
8862;DHT22;4799;50.996;4.754;2022-12-07T08:48:49;4.00;99.90
8862;DHT22;4799;50.996;4.754;2022-12-07T08:51:15;4.00;99.90
8862;DHT22;4799;50.996;4.754;2022-12-07T08:53:42;4.00;99.90
8862;DHT22;4799;50.996;4.754;2022-12-07T08:56:09;4.00;99.90
8862;DHT22;4799;50.996;4.754;2022-12-07T08:58:36;4.00;99.90
8862;DHT22;4799;50.996;4.754;2022-12-07T09:01:04;4.00;99.90
8862;DHT22;4799;50.996;4.754;2022-12-07T09:03:30;4.00;99.90
8862;DHT22;4799;50.996;4.754;2022-12-07T09:05:57;4.10;99.90
8862;DHT22;4799;50.996;4.754;2022-12-07T09:08:30;4.10;99.90
8862;DHT22;4799;50.996;4.754;2022-12-07T09:10:56;4.20;99.90
8862;DHT22;4799;50.996;4.754;2022-12-07T09:13:22;4.30;99.90
8862;DHT22;4799;50.996;4.754;2022-12-07T09:15:48;4.40;99.90
8862;DHT22;4799;50.996;4.754;2022-12-07T09:18:15;4.50;99.90
8862;DHT22;4799;50.996;4.754;2022-12-07T09:20:41;4.60;99.90
8862;DHT22;4799;50.996;4.754;2022-12-07T09:23:06;4.60;99.90
8862;DHT22;4799;50.996;4.754;2022-12-07T09:25:33;4.70;99.90
8862;DHT22;4799;50.996;4.754;2022-12-07T09:27:59;4.70;99.90
8862;DHT22;4799;50.996;4.754;2022-12-07T09:30:26;4.80;99.90
8862;DHT22;4799;50.996;4.754;2022-12-07T09:32:56;4.90;99.90
8862;DHT22;4799;50.996;4.754;2022-12-07T09:35:23;5.10;99.90
8862;DHT22;4799;50.996;4.754;2022-12-07T09:37:49;5.20;99.90
8862;DHT22;4799;50.996;4.754;2022-12-07T09:40:16;5.20;99.90
8862;DHT22;4799;50.996;4.754;2022-12-07T09:42:47;5.30;99.90
8862;DHT22;4799;50.996;4.754;2022-12-07T09:45:34;5.30;99.90
8862;DHT22;4799;50.996;4.754;2022-12-07T09:48:02;5.40;99.90
8862;DHT22;4799;50.996;4.754;2022-12-07T09:50:29;5.40;99.90
8862;DHT22;4799;50.996;4.754;2022-12-07T09:53:06;5.40;99.90
8862;DHT22;4799;50.996;4.754;2022-12-07T09:55:33;5.30;99.90
8862;DHT22;4799;50.996;4.754;2022-12-07T09:58:01;5.30;99.90
8862;DHT22;4799;50.996;4.754;2022-12-07T10:00:27;5.30;99.90
8862;DHT22;4799;50.996;4.754;2022-12-07T10:03:01;5.30;99.90
8862;DHT22;4799;50.996;4.754;2022-12-07T10:05:34;5.40;99.90
8862;DHT22;4799;50.996;4.754;2022-12-07T10:08:00;5.40;99.90
8862;DHT22;4799;50.996;4.754;2022-12-07T10:10:30;5.50;99.90
8862;DHT22;4799;50.996;4.754;2022-12-07T10:15:50;5.80;99.90
8862;DHT22;4799;50.996;4.754;2022-12-07T10:18:24;5.80;99.90
8862;DHT22;4799;50.996;4.754;2022-12-07T10:21:04;5.90;99.90
8862;DHT22;4799;50.996;4.754;2022-12-07T10:23:30;5.90;99.90
8862;DHT22;4799;50.996;4.754;2022-12-07T10:25:56;6.00;99.90
8862;DHT22;4799;50.996;4.754;2022-12-07T10:28:22;6.00;99.90
8862;DHT22;4799;50.996;4.754;2022-12-07T10:30:54;6.00;99.90
8862;DHT22;4799;50.996;4.754;2022-12-07T10:33:31;6.00;99.90
8862;DHT22;4799;50.996;4.754;2022-12-07T10:35:57;6.00;99.90
8862;DHT22;4799;50.996;4.754;2022-12-07T10:38:25;6.00;99.90
8862;DHT22;4799;50.996;4.754;2022-12-07T10:41:06;6.00;99.90
8862;DHT22;4799;50.996;4.754;2022-12-07T10:43:32;6.10;99.90
8862;DHT22;4799;50.996;4.754;2022-12-07T10:46:20;6.10;99.90
8862;DHT22;4799;50.996;4.754;2022-12-07T10:57:01;6.40;99.90
8862;DHT22;4799;50.996;4.754;2022-12-07T11:00:23;6.40;99.90
8862;DHT22;4799;50.996;4.754;2022-12-07T11:05:52;6.60;99.90
8862;DHT22;4799;50.996;4.754;2022-12-07T11:16:27;6.90;99.90
8862;DHT22;4799;50.996;4.754;2022-12-07T11:19:03;6.90;99.90
8862;DHT22;4799;50.996;4.754;2022-12-07T11:21:56;6.90;99.90
8862;DHT22;4799;50.996;4.754;2022-12-07T11:30:28;7.10;99.90
8862;DHT22;4799;50.996;4.754;2022-12-07T11:38:50;7.30;99.90
8862;DHT22;4799;50.996;4.754;2022-12-07T11:41:24;7.30;99.90
8862;DHT22;4799;50.996;4.754;2022-12-07T11:46:56;7.30;99.90
8862;DHT22;4799;50.996;4.754;2022-12-07T11:49:33;7.30;99.90
8862;DHT22;4799;50.996;4.754;2022-12-07T11:52:04;7.20;99.90
8862;DHT22;4799;50.996;4.754;2022-12-07T11:54:40;7.20;99.90
8862;DHT22;4799;50.996;4.754;2022-12-07T11:57:22;7.10;99.90
8862;DHT22;4799;50.996;4.754;2022-12-07T11:59:56;7.10;99.90
8862;DHT22;4799;50.996;4.754;2022-12-07T12:05:21;7.20;99.90
8862;DHT22;4799;50.996;4.754;2022-12-07T12:07:58;7.20;99.90
8862;DHT22;4799;50.996;4.754;2022-12-07T12:10:55;7.30;99.90
8862;DHT22;4799;50.996;4.754;2022-12-07T12:16:47;7.40;99.90
8862;DHT22;4799;50.996;4.754;2022-12-07T12:22:41;7.50;99.90
8862;DHT22;4799;50.996;4.754;2022-12-07T12:27:46;7.50;99.90
8862;DHT22;4799;50.996;4.754;2022-12-07T12:30:39;7.40;99.90
8862;DHT22;4799;50.996;4.754;2022-12-07T12:33:14;7.30;99.90
8862;DHT22;4799;50.996;4.754;2022-12-07T12:35:41;7.30;99.90
8862;DHT22;4799;50.996;4.754;2022-12-07T12:38:28;7.40;99.90
8862;DHT22;4799;50.996;4.754;2022-12-07T12:40:55;7.40;99.90
8862;DHT22;4799;50.996;4.754;2022-12-07T12:43:50;7.40;99.90
8862;DHT22;4799;50.996;4.754;2022-12-07T12:51:51;7.40;99.90
8862;DHT22;4799;50.996;4.754;2022-12-07T12:54:23;7.40;99.90
8862;DHT22;4799;50.996;4.754;2022-12-07T12:59:36;7.50;99.90
8862;DHT22;4799;50.996;4.754;2022-12-07T13:02:21;7.50;99.90
8862;DHT22;4799;50.996;4.754;2022-12-07T13:10:37;7.50;99.90
8862;DHT22;4799;50.996;4.754;2022-12-07T13:28:49;7.20;99.90
8862;DHT22;4799;50.996;4.754;2022-12-07T13:33:45;7.00;99.90
8862;DHT22;4799;50.996;4.754;2022-12-07T13:38:55;6.80;99.90
8862;DHT22;4799;50.996;4.754;2022-12-07T13:41:23;6.80;99.90
8862;DHT22;4799;50.996;4.754;2022-12-07T13:43:59;6.70;99.90
8862;DHT22;4799;50.996;4.754;2022-12-07T13:46:35;6.70;99.90
8862;DHT22;4799;50.996;4.754;2022-12-07T13:49:21;6.70;99.90
8862;DHT22;4799;50.996;4.754;2022-12-07T13:51:47;6.70;99.90
8862;DHT22;4799;50.996;4.754;2022-12-07T13:54:13;6.70;99.90
8862;DHT22;4799;50.996;4.754;2022-12-07T13:56:39;6.70;99.90
8862;DHT22;4799;50.996;4.754;2022-12-07T13:59:17;6.80;99.90
8862;DHT22;4799;50.996;4.754;2022-12-07T14:01:45;6.80;99.90
8862;DHT22;4799;50.996;4.754;2022-12-07T14:04:18;6.80;99.90
8862;DHT22;4799;50.996;4.754;2022-12-07T14:06:49;6.80;99.90
8862;DHT22;4799;50.996;4.754;2022-12-07T14:09:24;6.80;99.90
8862;DHT22;4799;50.996;4.754;2022-12-07T14:11:53;6.80;99.90
8862;DHT22;4799;50.996;4.754;2022-12-07T14:14:23;6.70;99.90
8862;DHT22;4799;50.996;4.754;2022-12-07T14:22:26;6.70;99.90
8862;DHT22;4799;50.996;4.754;2022-12-07T14:25:18;6.60;99.90
8862;DHT22;4799;50.996;4.754;2022-12-07T14:27:56;6.40;99.90
8862;DHT22;4799;50.996;4.754;2022-12-07T14:30:24;6.30;99.90
8862;DHT22;4799;50.996;4.754;2022-12-07T14:33:02;6.20;99.90
8862;DHT22;4799;50.996;4.754;2022-12-07T14:35:29;6.20;99.90
8862;DHT22;4799;50.996;4.754;2022-12-07T14:37:55;6.10;99.90
8862;DHT22;4799;50.996;4.754;2022-12-07T14:40:25;6.10;99.90
8862;DHT22;4799;50.996;4.754;2022-12-07T14:43:16;6.10;99.90
8862;DHT22;4799;50.996;4.754;2022-12-07T14:45:42;6.10;99.90
8862;DHT22;4799;50.996;4.754;2022-12-07T14:48:12;6.00;99.90
8862;DHT22;4799;50.996;4.754;2022-12-07T14:50:42;6.00;99.90
8862;DHT22;4799;50.996;4.754;2022-12-07T14:53:15;6.00;99.90
8862;DHT22;4799;50.996;4.754;2022-12-07T14:55:41;6.00;99.90
8862;DHT22;4799;50.996;4.754;2022-12-07T14:58:16;6.00;99.90
8862;DHT22;4799;50.996;4.754;2022-12-07T15:00:43;6.00;99.90
8862;DHT22;4799;50.996;4.754;2022-12-07T15:03:09;5.90;99.90
8862;DHT22;4799;50.996;4.754;2022-12-07T15:05:35;5.80;99.90
8862;DHT22;4799;50.996;4.754;2022-12-07T15:08:01;5.80;99.90
8862;DHT22;4799;50.996;4.754;2022-12-07T15:10:29;5.70;99.90
8862;DHT22;4799;50.996;4.754;2022-12-07T15:13:02;5.70;99.90
8862;DHT22;4799;50.996;4.754;2022-12-07T15:15:51;5.60;99.90
8862;DHT22;4799;50.996;4.754;2022-12-07T15:18:18;5.40;99.90
8862;DHT22;4799;50.996;4.754;2022-12-07T15:20:44;5.30;99.90
8862;DHT22;4799;50.996;4.754;2022-12-07T15:23:11;5.30;99.90
8862;DHT22;4799;50.996;4.754;2022-12-07T15:25:39;5.20;99.90
8862;DHT22;4799;50.996;4.754;2022-12-07T15:28:05;5.10;99.90
8862;DHT22;4799;50.996;4.754;2022-12-07T15:30:31;5.10;99.90
8862;DHT22;4799;50.996;4.754;2022-12-07T15:32:56;5.00;99.90
8862;DHT22;4799;50.996;4.754;2022-12-07T15:35:22;4.90;99.90
8862;DHT22;4799;50.996;4.754;2022-12-07T15:37:48;4.80;99.90
8862;DHT22;4799;50.996;4.754;2022-12-07T15:40:14;4.80;99.90
8862;DHT22;4799;50.996;4.754;2022-12-07T15:42:40;4.80;99.90
8862;DHT22;4799;50.996;4.754;2022-12-07T15:45:07;4.80;99.90
8862;DHT22;4799;50.996;4.754;2022-12-07T15:47:38;4.80;99.90
8862;DHT22;4799;50.996;4.754;2022-12-07T15:50:06;4.80;99.90
8862;DHT22;4799;50.996;4.754;2022-12-07T15:52:32;4.70;99.90
8862;DHT22;4799;50.996;4.754;2022-12-07T15:54:58;4.80;99.90
8862;DHT22;4799;50.996;4.754;2022-12-07T15:57:29;4.80;99.90
8862;DHT22;4799;50.996;4.754;2022-12-07T15:59:55;4.80;99.90
8862;DHT22;4799;50.996;4.754;2022-12-07T16:02:21;4.80;99.90
8862;DHT22;4799;50.996;4.754;2022-12-07T16:04:48;4.80;99.90
8862;DHT22;4799;50.996;4.754;2022-12-07T16:07:13;4.80;99.90
8862;DHT22;4799;50.996;4.754;2022-12-07T16:09:42;4.80;99.90
8862;DHT22;4799;50.996;4.754;2022-12-07T16:12:08;4.80;99.90
8862;DHT22;4799;50.996;4.754;2022-12-07T16:14:34;4.80;99.90
8862;DHT22;4799;50.996;4.754;2022-12-07T16:16:59;4.90;99.90
8862;DHT22;4799;50.996;4.754;2022-12-07T16:19:25;4.90;99.90
8862;DHT22;4799;50.996;4.754;2022-12-07T16:21:51;4.90;99.90
8862;DHT22;4799;50.996;4.754;2022-12-07T16:24:17;4.90;99.90
8862;DHT22;4799;50.996;4.754;2022-12-07T16:26:43;5.00;99.90
8862;DHT22;4799;50.996;4.754;2022-12-07T16:29:11;4.90;99.90
8862;DHT22;4799;50.996;4.754;2022-12-07T16:31:38;5.00;99.90
8862;DHT22;4799;50.996;4.754;2022-12-07T16:34:03;5.00;99.90
8862;DHT22;4799;50.996;4.754;2022-12-07T16:36:29;5.00;99.90
8862;DHT22;4799;50.996;4.754;2022-12-07T16:38:55;5.00;99.90
8862;DHT22;4799;50.996;4.754;2022-12-07T16:41:23;5.00;99.90
8862;DHT22;4799;50.996;4.754;2022-12-07T16:43:48;5.00;99.90
8862;DHT22;4799;50.996;4.754;2022-12-07T16:46:14;5.00;99.90
8862;DHT22;4799;50.996;4.754;2022-12-07T16:48:41;5.00;99.90
8862;DHT22;4799;50.996;4.754;2022-12-07T16:51:08;5.00;99.90
8862;DHT22;4799;50.996;4.754;2022-12-07T16:53:36;5.10;99.90
8862;DHT22;4799;50.996;4.754;2022-12-07T16:56:02;5.10;99.90
8862;DHT22;4799;50.996;4.754;2022-12-07T16:58:28;5.00;99.90
8862;DHT22;4799;50.996;4.754;2022-12-07T17:00:54;5.10;99.90
8862;DHT22;4799;50.996;4.754;2022-12-07T17:03:20;5.10;99.90
8862;DHT22;4799;50.996;4.754;2022-12-07T17:05:46;5.10;99.90
8862;DHT22;4799;50.996;4.754;2022-12-07T17:08:13;5.10;99.90
8862;DHT22;4799;50.996;4.754;2022-12-07T17:10:41;5.10;99.90
8862;DHT22;4799;50.996;4.754;2022-12-07T17:13:08;5.10;99.90
8862;DHT22;4799;50.996;4.754;2022-12-07T17:16:04;5.10;99.90
8862;DHT22;4799;50.996;4.754;2022-12-07T17:18:32;5.10;99.90
8862;DHT22;4799;50.996;4.754;2022-12-07T17:21:04;5.10;99.90
8862;DHT22;4799;50.996;4.754;2022-12-07T17:23:30;5.10;99.90
8862;DHT22;4799;50.996;4.754;2022-12-07T17:26:18;5.10;99.90
8862;DHT22;4799;50.996;4.754;2022-12-07T17:28:44;5.10;99.90
8862;DHT22;4799;50.996;4.754;2022-12-07T17:31:13;5.10;99.90
8862;DHT22;4799;50.996;4.754;2022-12-07T17:33:39;5.10;99.90
8862;DHT22;4799;50.996;4.754;2022-12-07T17:38:37;5.10;99.90
8862;DHT22;4799;50.996;4.754;2022-12-07T17:41:13;5.00;99.90
8862;DHT22;4799;50.996;4.754;2022-12-07T17:44:00;5.00;99.90
8862;DHT22;4799;50.996;4.754;2022-12-07T17:46:26;5.00;99.90
8862;DHT22;4799;50.996;4.754;2022-12-07T17:48:56;5.00;99.90
8862;DHT22;4799;50.996;4.754;2022-12-07T17:51:22;5.00;99.90
8862;DHT22;4799;50.996;4.754;2022-12-07T17:54:07;4.90;99.90
8862;DHT22;4799;50.996;4.754;2022-12-07T17:56:34;4.90;99.90
8862;DHT22;4799;50.996;4.754;2022-12-07T17:59:00;4.90;99.90
8862;DHT22;4799;50.996;4.754;2022-12-07T18:01:26;4.90;99.90
8862;DHT22;4799;50.996;4.754;2022-12-07T18:03:52;4.90;99.90
8862;DHT22;4799;50.996;4.754;2022-12-07T18:06:17;4.90;99.90
8862;DHT22;4799;50.996;4.754;2022-12-07T18:08:43;4.80;99.90
8862;DHT22;4799;50.996;4.754;2022-12-07T18:11:09;4.80;99.90
8862;DHT22;4799;50.996;4.754;2022-12-07T18:13:35;4.80;99.90
8862;DHT22;4799;50.996;4.754;2022-12-07T18:16:02;4.70;99.90
8862;DHT22;4799;50.996;4.754;2022-12-07T18:18:28;4.70;99.90
8862;DHT22;4799;50.996;4.754;2022-12-07T18:20:54;4.70;99.90
8862;DHT22;4799;50.996;4.754;2022-12-07T18:23:19;4.60;99.90
8862;DHT22;4799;50.996;4.754;2022-12-07T18:25:49;4.60;99.90
8862;DHT22;4799;50.996;4.754;2022-12-07T18:28:15;4.60;99.90
8862;DHT22;4799;50.996;4.754;2022-12-07T18:30:42;4.70;99.90
8862;DHT22;4799;50.996;4.754;2022-12-07T18:33:19;4.70;99.90
8862;DHT22;4799;50.996;4.754;2022-12-07T18:35:46;4.70;99.90
8862;DHT22;4799;50.996;4.754;2022-12-07T18:38:13;4.60;99.90
8862;DHT22;4799;50.996;4.754;2022-12-07T18:40:40;4.60;99.90
8862;DHT22;4799;50.996;4.754;2022-12-07T18:43:07;4.60;99.90
8862;DHT22;4799;50.996;4.754;2022-12-07T18:45:38;4.70;99.90
8862;DHT22;4799;50.996;4.754;2022-12-07T18:48:04;4.70;99.90
8862;DHT22;4799;50.996;4.754;2022-12-07T18:50:31;4.70;99.90